Tiempo atmosférico en la estación meteorológica de Molina De Aragón, Guadalajara (1056 m.)



Fecha
DESCASC
Temp. máxima en grados centígrados (hora)
DESCASC
Temp. mínima en grados centígrados (hora)
DESCASC
Temp. media en grados centígrados
DESCASC
Racha de viento máxima en m/sg (hora)
DESCASC
Velocidad máxima media en intervalos de 10 minutos(hora)
DESCASC
Precipitaciones diarias en mm
DESCASC
Precipitaciones de 00:00 a 06:00 en mm
DESCASC
Precipitaciones de 06:00 a 12:00 en mm
DESCASC
Precipitaciones de 12:00 a 18:00 en mm
DESCASC
Precipitaciones de 18:00 a 24:00 en mm
DESCASC
22-08-2019 29.1 (17:30) 7.8 (07:30) 18.5 6.39 (17:20) 2.78 (17:20) 0 0 0 0 0
21-08-2019 25.6 (15:10) 13.5 (07:40) 19.6 8.61 (21:00) 5.56 (21:00) 0.6 0 0 0.6 0
20-08-2019 21.4 (18:20) 15.1 (09:20) 18.3 7.78 (03:30) 3.61 (03:40) 0 0 0 0 0
19-08-2019 30 (14:50) 10.6 (08:00) 20.3 7.5 (13:50) 3.61 (14:00) 0 0 0 0 0
18-08-2019 31.9 (18:30) 11.1 (00:00) 21.5 13.06 (14:40) 6.67 (18:40) 0 0 0 0 0
17-08-2019 33.2 (17:40) 11.8 (00:00) 22.5 13.33 (15:30) 4.44 (14:40) 0 0 0 0 0
16-08-2019 32.3 (16:50) 11.3 (00:00) 21.8 8.61 (18:30) 3.89 (18:20) 0 0 0 0 0
15-08-2019 32 (16:50) 9.8 (00:00) 20.9 8.06 (15:00) 3.89 (15:00) 0 0 0 0 0
14-08-2019 29.7 (16:40) 6.2 (00:00) 18 7.22 (16:40) 3.89 (19:10) 0 0 0 0 0
13-08-2019 27.5 (17:40) 11.2 (00:00) 19.3 6.67 (16:00) 3.06 (19:10) 0 0 0 0 0
12-08-2019 25.1 (17:20) 10 (00:00) 17.6 11.67 (14:10) 3.61 (20:00) 0 0 0 0 0
11-08-2019 28.2 (16:10) 13.1 (00:00) 20.7 11.67 (15:40) 5 (17:10) 0 0 0 0 0
10-08-2019 30.7 (17:10) 14.1 (00:00) 22.4 9.72 (14:40) 4.17 (17:50) 0 0 0 0 0
09-08-2019 30.6 (17:10) 12.9 (00:00) 21.8 12.22 (18:40) 5.28 (12:00) 0 0 0 0 0
08-08-2019 30.6 (17:40) 12.2 (00:00) 21.4 10.83 (17:10) 4.72 (19:20) 0 0 0 0 0
07-08-2019 25.7 (14:20) 14 (00:00) 19.9 7.22 (16:10) 3.33 (15:50) 0 0 0 0 0
06-08-2019 32.6 (17:10) 10.6 (00:00) 21.6 9.44 (12:40) 4.72 (12:40) 0 0 0 0 0
05-08-2019 32.8 (17:00) 10.3 (00:00) 21.5 9.72 (16:10) 3.89 (15:10) 0 0 0 0 0
04-08-2019 32.6 (17:20) 10.7 (00:00) 21.6 9.72 (17:30) 4.44 (15:10) 0 0 0 0 0
03-08-2019 32.6 (16:40) 12.4 (00:00) 22.5 8.33 (16:00) 4.44 (17:00) 0 0 0 0 0
02-08-2019 33 (17:20) 12.6 (00:00) 22.8 8.89 (18:50) 3.33 (16:20) 0 0 0 0 0
01-08-2019 30.6 (17:20) 14.4 (00:00) 22.5 8.61 (15:50) 4.44 (18:10) 0 0 0 0 0
31-07-2019 30.6 (16:50) 9.3 (00:00) 20 8.89 (20:50) 4.44 (20:30) 0 0 0 0 0
30-07-2019 29 (17:30) 8.5 (00:00) 18.8 7.22 (17:30) 2.78 (18:20) 0 0 0 0 0
29-07-2019 29.6 (17:30) 8.8 (00:00) 19.2 11.39 (17:10) 4.44 (17:10) 0 0 0 0 0
28-07-2019 27.5 (17:40) 7.5 (00:00) 17.5 6.39 (17:50) 3.06 (18:30) 0 0 0 0 0
27-07-2019 24.7 (17:40) 14.5 (00:00) 19.6 10.83 (20:00) 5.56 (17:50) 0 0 0 0 0
26-07-2019 29 (17:10) 18 (00:00) 23.5 10 (17:40) 5 (16:40) 0 0 0 0 0

Gráficas

Temp. máximas Temp. mínimas Temp. medias Precipitaciones Rachas de viento máximas Velocidades máximas media en intervalos de 10 minutos

Datos horarios

Fecha y hora oficial Temperatura (ºC) Velocidad del viento (km/h) Dirección del viento Racha (km/h) Dirección de racha Precipitación (mm) Presión (hPa) Tendencia (hPa) Humedad (%)
2019-08-24 23:00:00 20.4 4 Sudeste 10 Sudeste 0 900.1 1 39
2019-08-24 22:00:00 23.3 4 Sudeste 15 Este 0 899.8 0.5 33
2019-08-24 21:00:00 25.3 3 Nordeste 16 Este 0 899.3 -0.2 30
2019-08-24 20:00:00 27.9 5 Nordeste 17 Este 0 899.1 -0.5 23
2019-08-24 19:00:00 29.6 12 Este 24 Este 0 899.3 -0.8 22
2019-08-24 18:00:00 31 5 Norte 18 Norte 0 899.5 -0.8 21
2019-08-24 17:00:00 30.7 8 Este 21 Sudeste 0 899.6 -1.2 22
2019-08-24 16:00:00 30.3 5 Este 20 Norte 0 900.1 -1.3 21
2019-08-24 15:00:00 29.5 8 Nordeste 20 Sudeste 0 900.3 -1.3 25
2019-08-24 14:00:00 29 7 Sudeste 15 Sudeste 0 900.8 -1 21
2019-08-24 13:00:00 27.4 5 Sudeste 14 Sudeste 0 901.4 -0.5 27
2019-08-24 12:00:00 25.3 4 Oeste 8 Oeste 0 901.6 -0.3 37
2019-08-24 11:00:00 20.8 3 Sudeste 5 Sudeste 0 901.8 0 48
2019-08-24 10:00:00 16.2 0 Calma 4 Oeste 0 901.9 0.2 62
2019-08-24 09:00:00 12.1 0 Calma 4 Este 0 901.9 0.3 79
2019-08-24 08:00:00 9 0 Calma 5 Este 0 901.8 0.1 85
2019-08-24 07:00:00 9.4 0 Calma 4 Este 0 901.7 0.2 82
2019-08-24 06:00:00 10.1 2 Este 4 Este 0 901.6 0.2 79
2019-08-24 05:00:00 11 0 Calma 4 Este 0 901.7 0.2 76
2019-08-24 04:00:00 12.1 2 Este 4 Este 0 901.5 0.4 73
2019-08-24 03:00:00 13.5 0 Calma 5 Sudeste 0 901.4 0.5 69
2019-08-24 02:00:00 15 2 Este 4 Sudoeste 0 901.5 0.6 63
2019-08-24 01:00:00 16.6 0 Calma 9 Sudoeste 0 901.1 0.4 56
2019-08-24 00:00:00 19.1 3 Este 14 Sudeste 0 900.9 0.9 45
2019-08-23 23:00:00 20.9 6 Sudeste 13 Sudeste 0 900.9 1.1 40
2019-08-23 22:00:00 21.6 3 Nordeste 10 Norte 0 900.7 0.7 40
2019-08-23 21:00:00 24 0 Calma 8 Este 0 900 -0.1 30
2019-08-23 20:00:00 27.2 4 Este 14 Este 0 899.8 -0.6 23
2019-08-23 19:00:00 29.3 4 Nordeste 16 Norte 0 900 -0.7 24
2019-08-23 18:00:00 30.3 5 Norte 18 Norte 0 900.1 -1.2 22
2019-08-23 17:00:00 30.2 5 Nordeste 18 Norte 0 900.4 -1.4 23
2019-08-23 16:00:00 29 6 Este 24 Este 0 900.7 -1.6 25
2019-08-23 15:00:00 28.2 6 Este 23 Este 0 901.3 -1.3 29
2019-08-23 14:00:00 27.3 4 Este 15 Sur 0 901.8 -1 30
2019-08-23 13:00:00 25.9 5 Sudoeste 13 Sur 0 902.3 -0.8 30
2019-08-23 12:00:00 24.1 3 Sur 7 Sudeste 0 902.6 -0.5 42
2019-08-23 11:00:00 20.1 3 Sudoeste 7 Sudoeste 0 902.8 -0.2 60
2019-08-23 10:00:00 15.5 5 Oeste 8 Oeste 0 903.1 0.6 70
2019-08-23 09:00:00 11.5 2 Sudeste 4 Sur 0 903.1 0.6 81
2019-08-23 08:00:00 8.5 0 Calma 5 Este 0 903 0.5 87
2019-08-23 07:00:00 8.9 0 Calma 4 Sudeste 0 902.5 -0.1 85
2019-08-23 06:00:00 9.5 0 Calma 6 Este 0 902.5 0.1 83
2019-08-23 05:00:00 10.3 0 Calma 5 Sudeste 0 902.5 0.1 80
2019-08-23 04:00:00 11.2 3 Sudeste 5 Sur 0 902.6 0 78
2019-08-23 03:00:00 11.9 2 Este 5 Sudeste 0 902.4 -0.2 73
2019-08-23 02:00:00 12.8 2 Este 6 Sudeste 0 902.4 -0.3 68
2019-08-23 01:00:00 14.1 2 Este 7 Este 0 902.6 0.5 60
2019-08-23 00:00:00 15.8 3 Este 7 Este 0 902.6 1.3 52
2019-08-22 23:00:00 18.3 2 Nordeste 12 Nordeste 0 902.7 1.8 43
2019-08-22 22:00:00 20.2 3 Sur 13 Norte 0 902.1 1.4 37
2019-08-22 21:00:00 22.6 3 Norte 18 Norte 0 901.3 0.2 36
2019-08-22 20:00:00 25.5 4 Norte 20 Norte 0 900.9 -0.3 33
2019-08-22 19:00:00 28 7 Norte 18 Nordeste 0 900.7 -0.8 30
2019-08-22 18:00:00 28.9 8 Norte 23 Norte 0 901.1 -0.7 27
2019-08-22 17:00:00 28.9 9 Norte 21 Este 0 901.2 -0.8 31
2019-08-22 16:00:00 28.3 7 Norte 20 Nordeste 0 901.5 -1 34
2019-08-22 15:00:00 26.8 6 Nordeste 20 Norte 0 901.8 -1.2 32
2019-08-22 14:00:00 25.9 5 Nordeste 17 Sudoeste 0 902 -1 37
2019-08-22 13:00:00 24.1 3 Sur 13 Oeste 0 902.5 -0.6 42
2019-08-22 12:00:00 22.5 5 Sudeste 12 Sudeste 0 903 -0.1 57
2019-08-22 11:00:00 18.3 3 Sudoeste 7 Oeste 0 903 0.3 71
2019-08-22 10:00:00 14.2 3 Sur 9 Noroeste 0 903.1 0.5 82
2019-08-22 09:00:00 9.9 2 Oeste 4 Noroeste 0 903.1 0.7 96
2019-08-22 08:00:00 7.9 3 Este 6 Sudeste 0 902.7 0.5 96
2019-08-22 07:00:00 8.2 2 Este 6 Este 0 902.6 0.2 93
2019-08-22 06:00:00 8.8 0 Calma 3 Este 0 902.4 0 92
2019-08-22 05:00:00 9.5 0 Calma 5 Sudeste 0 902.2 -0.4 92
2019-08-22 04:00:00 10.3 0 Calma 4 Sudeste 0 902.4 -0.4 93
2019-08-22 03:00:00 11 0 Calma 5 Este 0 902.4 -0.3 90
2019-08-22 02:00:00 12 3 Este 6 Este 0 902.6 0.4 90
2019-08-22 01:00:00 13.2 4 Este 8 Sudeste 0 902.8 1.5 87
2019-08-22 00:00:00 14.6 0 Calma 6 Nordeste 0 902.7 2.8 81
2019-08-21 23:00:00 16.2 3 Este 8 Sur 0 902.2 0.3 75
2019-08-21 22:00:00 17.2 0 Calma 21 Norte 0 901.3 0.7 67
2019-08-21 21:00:00 18.8 20 Sur 31 Sur 0 899.9 -1 49
2019-08-21 20:00:00 17.1 6 Sur 18 Este 0 901.9 1.6 80
2019-08-21 19:00:00 17.4 7 Este 22 Sudeste 0 900.6 0.6 82
2019-08-21 18:00:00 18 7 Este 24 Este 0.4 900.9 0.7 84
2019-08-21 17:00:00 19.2 9 Este 24 Este 0.2 900.3 -0.4 75
2019-08-21 16:00:00 22.6 13 Este 27 Este 0 900 -1.4 64
2019-08-21 15:00:00 25.4 6 Noroeste 15 Nordeste 0 900.2 -1.6 48
2019-08-21 14:00:00 24.9 5 Norte 17 Noroeste 0 900.7 -1.3 51
2019-08-21 13:00:00 23.8 4 Nordeste 12 Este 0 901.4 -0.6 57
2019-08-21 12:00:00 22.3 4 Oeste 11 Noroeste 0 901.8 -0.5 62
2019-08-21 11:00:00 19.7 3 Oeste 7 Oeste 0 902 -0.2 69
2019-08-21 10:00:00 17.5 2 Sur 7 Sudeste 0 902 0 73
2019-08-21 09:00:00 15.6 3 Sudeste 6 Sudeste 0 902.3 0.4 78
2019-08-21 08:00:00 13.7 3 Este 8 Este 0 902.2 -0.1 83
2019-08-21 07:00:00 14 2 Nordeste 5 Este 0 902 -0.3 80
2019-08-21 06:00:00 14.7 3 Nordeste 9 Norte 0 901.9 -0.4 78
2019-08-21 05:00:00 15 2 Nordeste 11 Norte 0 902.3 -0.1 77
2019-08-21 04:00:00 14.2 5 Norte 12 Norte 0 902.3 -0.2 80
2019-08-21 03:00:00 15 3 Nordeste 15 Norte 0 902.3 -0.1 76
2019-08-21 02:00:00 16.4 4 Nordeste 10 Nordeste 0 902.4 -0.2 72
2019-08-21 01:00:00 16.9 3 Nordeste 14 Este 0 902.5 0.2 71
2019-08-21 00:00:00 17.3 7 Este 22 Nordeste 0 902.4 0.4 72
2019-08-20 23:00:00 17.3 8 Este 20 Este 0 902.6 1.1 69
2019-08-20 22:00:00 17.4 7 Este 21 Este 0 902.3 1 69
2019-08-20 21:00:00 18.2 7 Este 20 Este 0 902 0.9 67
2019-08-20 20:00:00 19.2 6 Nordeste 26 Nordeste 0 901.5 0.1 66
2019-08-20 19:00:00 20.7 6 Nordeste 22 Este 0 901.3 -0.3 62
2019-08-20 18:00:00 21.3 5 Nordeste 25 Este 0 901.1 -0.7 60
2019-08-20 17:00:00 20.3 8 Nordeste 24 Nordeste 0 901.4 -0.7 62
2019-08-20 16:00:00 19.4 8 Nordeste 21 Este 0 901.6 -0.5 65
2019-08-20 15:00:00 18.5 5 Nordeste 24 Este 0 901.8 0.2 69
2019-08-20 14:00:00 16.6 6 Nordeste 23 Este 0 902.1 1.2 79
2019-08-20 13:00:00 15.6 5 Nordeste 21 Este 0 902.1 2.1 82
2019-08-20 12:00:00 16.2 6 Nordeste 14 Norte 0 901.6 2 83
2019-08-20 11:00:00 15.7 5 Norte 19 Norte 0 900.9 1.9 85
2019-08-20 10:00:00 15.7 4 Nordeste 16 Este 0 900 1.5 85
2019-08-20 09:00:00 15.5 3 Nordeste 14 Nordeste 0 899.6 1.4 86
2019-08-20 08:00:00 15.4 6 Este 18 Sudeste 0 899 0.6 83
2019-08-20 07:00:00 15.4 10 Sudeste 17 Sudeste 0 898.5 0 82
2019-08-20 06:00:00 15.7 4 Nordeste 19 Norte 0 898.2 0.2 79
2019-08-20 05:00:00 15.9 8 Norte 23 Norte 0 898.4 0.4 78
2019-08-20 04:00:00 16.6 12 Norte 28 Norte 0 898.5 0.3 72
2019-08-20 03:00:00 17.1 10 Norte 22 Norte 0 898 -0.3 68
2019-08-20 02:00:00 17.2 6 Norte 17 Nordeste 0 898 -0.6 67
2019-08-20 01:00:00 17.6 3 Nordeste 13 Norte 0 898.2 -0.1 64
2019-08-20 00:00:00 18 2 Nordeste 17 Este 0 898.3 0.5 62
2019-08-19 23:00:00 18.4 4 Nordeste 16 Este 0 898.6 1.1 60
2019-08-19 22:00:00 19.2 5 Norte 17 Nordeste 0 898.3 1.1 56
2019-08-19 21:00:00 20.4 5 Nordeste 18 Nordeste 0 897.8 0.6 53
2019-08-19 20:00:00 22 7 Norte 21 Norte 0 897.5 0.5 48
2019-08-19 19:00:00 23 5 Nordeste 25 Este 0 897.2 0.2 45
2019-08-19 18:00:00 24.7 5 Nordeste 23 Norte 0 897.2 0.4 41
2019-08-19 17:00:00 25.9 7 Nordeste 24 Nordeste 0 897 0 39
2019-08-19 16:00:00 28.3 6 Norte 24 Oeste 0 897 -0.3 35
2019-08-19 15:00:00 29.1 10 Sudoeste 25 Oeste 0 896.8 -0.8 30
2019-08-19 14:00:00 29.1 13 Sudoeste 27 Sudoeste 0 897 -0.9 29
2019-08-19 13:00:00 27.5 6 Nordeste 19 Norte 0 897.3 -0.4 38
2019-08-19 12:00:00 25.4 9 Norte 21 Norte 0 897.6 -0.3 45
2019-08-19 11:00:00 21.3 9 Norte 17 Nordeste 0 897.9 -0.1 55
2019-08-19 10:00:00 18.3 4 Sudeste 8 Sudeste 0 897.7 0.2 60
2019-08-19 09:00:00 14.3 2 Sur 5 Este 0 897.9 0.7 52
2019-08-19 08:00:00 10.7 0 Calma 5 Sur 0 898 0.8 57
2019-08-19 07:00:00 11 2 Sur 6 Este 0 897.5 0.1 55
2019-08-19 06:00:00 10.8 3 Este 7 Sudeste 0 897.2 -0.3 54
2019-08-19 05:00:00 11 0 Calma 6 Sudeste 0 897.2 -0.4 49
2019-08-19 04:00:00 11.9 2 Este 6 Sur 0 897.4 0.2 44
2019-08-19 03:00:00 13.1 4 Este 11 Este 0 897.5 0.6 39
2019-08-19 02:00:00 13.8 2 Nordeste 5 Este 0 897.6 1 37
2019-08-19 01:00:00 15.5 2 Este 8 Este 0 897.2 1.4 33
2019-08-19 00:00:00 17.6 4 Este 8 Sudeste 0 896.9 2.1 28
2019-08-18 23:00:00 20.8 0 Calma 8 Sudeste 0 896.6 2 23
2019-08-18 22:00:00 24.4 3 Norte 13 Oeste 0 895.8 1.2 20
2019-08-18 21:00:00 27.6 10 Oeste 32 Oeste 0 894.8 0.1 20
2019-08-18 20:00:00 29.8 12 Sudoeste 31 Oeste 0 894.6 -0.3 19
2019-08-18 19:00:00 30.6 20 Oeste 44 Sudoeste 0 894.6 -0.5 17
2019-08-18 18:00:00 30.9 14 Sudoeste 38 Sudoeste 0 894.7 -0.8 17
2019-08-18 17:00:00 31.2 15 Sudoeste 38 Oeste 0 894.9 -1 20
2019-08-18 16:00:00 31.6 14 Sudoeste 45 Sudoeste 0 895.1 -1.1 20
2019-08-18 15:00:00 31.2 21 Oeste 47 Oeste 0 895.5 -0.9 21
2019-08-18 14:00:00 30.5 19 Sudoeste 41 Sudoeste 0 895.9 -0.2 26
2019-08-18 13:00:00 29.9 18 Sudoeste 41 Oeste 0 896.2 0.2 24
2019-08-18 12:00:00 29.2 19 Sudoeste 40 Sudoeste 0 896.4 0.4 25
2019-08-18 11:00:00 27.7 13 Sudoeste 32 Sudoeste 0 896.1 0.3 24
2019-08-18 10:00:00 21.9 4 Oeste 10 Oeste 0 896 0.6 51
2019-08-18 09:00:00 15.4 2 Sudeste 4 Sudeste 0 896 0.6 57
2019-08-18 08:00:00 11.3 2 Este 4 Este 0 895.8 0.1 66
2019-08-18 07:00:00 11.7 0 Calma 4 Sudeste 0 895.4 -0.6 63
2019-08-18 06:00:00 12.4 2 Sudeste 4 Sur 0 895.4 -1.1 58
2019-08-18 05:00:00 13.1 0 Calma 4 Nordeste 0 895.7 -1 56
2019-08-18 04:00:00 13.8 2 Este 4 Norte 0 896 -0.7 53
2019-08-18 03:00:00 14.8 0 Calma 6 Sudeste 0 896.5 0 49
2019-08-18 02:00:00 15.6 0 Calma 4 Este 0 896.7 0.3 48
2019-08-18 01:00:00 17 0 Calma 3 Este 0 896.7 0.5 44
2019-08-18 00:00:00 18.8 4 Este 8 Este 0 896.5 0.8 39
2019-08-17 23:00:00 21.4 4 Este 9 Este 0 896.4 0.6 33
2019-08-17 22:00:00 24.6 0 Calma 5 Oeste 0 896.2 0 28
2019-08-17 21:00:00 28.6 3 Sudoeste 21 Sudoeste 0 895.7 -0.7 24
2019-08-17 20:00:00 30.5 11 Sudoeste 28 Sudoeste 0 895.8 -0.9 18
2019-08-17 19:00:00 32.2 11 Sudoeste 30 Sudoeste 0 896.2 -1.1 19
2019-08-17 18:00:00 33.1 13 Sudoeste 32 Sudoeste 0 896.4 -1.3 19
2019-08-17 17:00:00 33 13 Sudoeste 33 Sur 0 896.7 -1.4 18
2019-08-17 16:00:00 32.3 12 Sudoeste 48 Sur 0 897.3 -1.3 19
2019-08-17 15:00:00 31.6 16 Oeste 32 Oeste 0 897.7 -1.3 24
2019-08-17 14:00:00 31.1 14 Oeste 29 Oeste 0 898.1 -1.2 25
2019-08-17 13:00:00 30.3 9 Oeste 21 Oeste 0 898.6 -0.8 28
2019-08-17 12:00:00 28.5 9 Sudoeste 16 Sudoeste 0 899 -0.3 34
2019-08-17 11:00:00 25.8 7 Oeste 13 Noroeste 0 899.3 0.2 46
2019-08-17 10:00:00 20.1 4 Sudoeste 6 Sur 0 899.4 0.5 53
2019-08-17 09:00:00 15.6 2 Sur 3 Sur 0 899.3 0.6 58
2019-08-17 08:00:00 11.8 2 Sudeste 5 Sudeste 0 899.1 0.3 65
2019-08-17 07:00:00 11.9 0 Calma 9 Sudeste 0 898.9 0.1 64
2019-08-17 06:00:00 12.7 2 Este 4 Este 0 898.7 -0.3 60
2019-08-17 05:00:00 13.5 0 Calma 3 Este 0 898.8 -0.1 57
2019-08-17 04:00:00 14.6 3 Este 4 Este 0 898.8 0 54
2019-08-17 03:00:00 15.6 3 Este 6 Este 0 899 0.2 51
2019-08-17 02:00:00 16.4 3 Este 8 Este 0 898.9 0.3 49
2019-08-17 01:00:00 17.9 3 Sudeste 7 Este 0 898.8 0.6 45
2019-08-17 00:00:00 19.1 0 Calma 9 Este 0 898.8 1.1 42
2019-08-16 23:00:00 21.5 5 Este 8 Sudeste 0 898.6 1.2 36
2019-08-16 22:00:00 25 3 Norte 10 Oeste 0 898.2 0.8 31
2019-08-16 21:00:00 28.1 8 Oeste 24 Sudoeste 0 897.7 0.1 27
2019-08-16 20:00:00 29.8 9 Oeste 23 Oeste 0 897.4 -0.5 25
2019-08-16 19:00:00 31 11 Oeste 31 Oeste 0 897.4 -0.9 27
2019-08-16 18:00:00 31.9 8 Sudoeste 28 Sudoeste 0 897.6 -1.1 29
2019-08-16 17:00:00 31.6 11 Sudoeste 27 Sudoeste 0 897.9 -1.2 27
2019-08-16 16:00:00 31.7 12 Oeste 26 Oeste 0 898.3 -1.3 29
2019-08-16 15:00:00 31.2 10 Oeste 28 Oeste 0 898.7 -1.5 28
2019-08-16 14:00:00 30 8 Oeste 23 Oeste 0 899.1 -1.3 33
2019-08-16 13:00:00 29.7 6 Norte 21 Oeste 0 899.6 -1.1 34
2019-08-16 12:00:00 27.1 5 Noroeste 13 Noroeste 0 900.2 -0.7 41
2019-08-16 11:00:00 22.6 2 Sudoeste 5 Oeste 0 900.4 -0.3 55
2019-08-16 10:00:00 18.8 2 Sur 4 Sudeste 0 900.7 0.1 62
2019-08-16 09:00:00 15 2 Sur 3 Sudoeste 0 900.9 0.2 69
2019-08-16 08:00:00 11.4 0 Calma 5 Este 0 900.7 -0.2 79
2019-08-16 07:00:00 11.7 0 Calma 5 Este 0 900.6 -0.5 77
2019-08-16 06:00:00 12.3 3 Sudeste 5 Sudeste 0 900.7 -0.9 76
2019-08-16 05:00:00 12.9 2 Este 4 Sur 0 900.9 -1 74
2019-08-16 04:00:00 13.6 0 Calma 7 Sudeste 0 901.1 -1.1 71
2019-08-16 03:00:00 14.4 0 Calma 5 Este 0 901.6 -0.5 69
2019-08-16 02:00:00 15.5 0 Calma 5 Sudeste 0 901.9 -0.1 65
2019-08-16 01:00:00 16.8 0 Calma 9 Sudeste 0 902.2 0.8 60
2019-08-16 00:00:00 18.2 3 Este 10 Nordeste 0 902.1 2.2 56
2019-08-15 23:00:00 19.7 5 Este 13 Este 0 902 2.7 52
2019-08-15 22:00:00 21.5 8 Este 21 Nordeste 0 901.4 2.1 49
2019-08-15 21:00:00 24.8 4 Nordeste 21 Este 0 899.9 0.6 43
2019-08-15 20:00:00 27.4 9 Este 17 Este 0 899.3 -0.3 39
2019-08-15 19:00:00 28.6 6 Nordeste 18 Este 0 899.3 -0.3 36
2019-08-15 18:00:00 30.2 4 Nordeste 25 Norte 0 899.3 -0.9 31
2019-08-15 17:00:00 31.7 10 Norte 26 Noroeste 0 899.6 -0.9 32
2019-08-15 16:00:00 30.4 7 Nordeste 27 Norte 0 899.6 -1.4 35
2019-08-15 15:00:00 29.7 14 Noroeste 29 Noroeste 0 900.2 -1.3 29
2019-08-15 14:00:00 29.2 6 Noroeste 18 Norte 0 900.5 -1.4 36
2019-08-15 13:00:00 28 5 Nordeste 18 Nordeste 0 901 -1 39
2019-08-15 12:00:00 25 6 Sur 12 Sur 0 901.5 -0.7 41
2019-08-15 11:00:00 22.1 4 Sudeste 11 Sudeste 0 901.9 0.1 51
2019-08-15 10:00:00 17.9 2 Sudoeste 4 Sudoeste 0 902 0.8 60
2019-08-15 09:00:00 14 0 Calma 4 Este 0 902.2 1.3 62
2019-08-15 08:00:00 9.9 2 Sudoeste 5 Sudeste 0 901.8 0.8 76
2019-08-15 07:00:00 10.2 0 Calma 4 Este 0 901.2 0.1 76
2019-08-15 06:00:00 10.9 2 Sudeste 5 Este 0 900.9 -0.4 73
2019-08-15 05:00:00 11.5 0 Calma 4 Este 0 901 -0.9 70
2019-08-15 04:00:00 12.5 2 Este 5 Sudeste 0 901.1 -0.7 64
2019-08-15 03:00:00 13.6 3 Este 5 Sudeste 0 901.3 -0.5 59
2019-08-15 02:00:00 15 2 Este 8 Sudeste 0 901.9 0.5 53
2019-08-15 01:00:00 15.9 0 Calma 4 Este 0 901.8 1.3 47
2019-08-15 00:00:00 18.3 4 Sudeste 9 Este 0 901.8 2 39
2019-08-14 23:00:00 21 4 Este 15 Norte 0 901.4 1.9 34
2019-08-14 22:00:00 22.1 6 Norte 12 Norte 0 900.5 1.3 30
2019-08-14 21:00:00 25.9 5 Norte 15 Noroeste 0 899.8 0.3 24
2019-08-14 20:00:00 27.6 7 Noroeste 25 Norte 0 899.5 -0.2 22
2019-08-14 19:00:00 29.3 7 Noroeste 25 Noroeste 0 899.2 -1 19
2019-08-14 18:00:00 29.4 8 Oeste 23 Oeste 0 899.5 -1.1 24
2019-08-14 17:00:00 29.5 7 Noroeste 26 Noroeste 0 899.7 -1.2 22
2019-08-14 16:00:00 28.5 8 Oeste 20 Noroeste 0 900.2 -1.2 24
2019-08-14 15:00:00 27.9 6 Oeste 21 Noroeste 0 900.6 -1.2 25
2019-08-14 14:00:00 26.8 5 Sudeste 21 Oeste 0 900.9 -1 22
2019-08-14 13:00:00 25.2 9 Oeste 22 Oeste 0 901.4 -0.8 30
2019-08-14 12:00:00 23.1 5 Oeste 17 Sudoeste 0 901.8 -0.3 38
2019-08-14 11:00:00 18.7 3 Oeste 8 Oeste 0 901.9 -0.3 56
2019-08-14 10:00:00 12.9 3 Oeste 5 Sur 0 902.2 0.4 59
2019-08-14 09:00:00 8.9 2 Norte 6 Sudeste 0 902.1 0.5 71
2019-08-14 08:00:00 6.4 2 Este 6 Sudeste 0 902.2 0.4 78
2019-08-14 07:00:00 6.4 2 Este 5 Sudeste 0 901.8 -0.2 78
2019-08-14 06:00:00 7 2 Este 9 Sudeste 0 901.6 -0.6 75
2019-08-14 05:00:00 7.8 3 Este 6 Sudeste 0 901.8 -0.2 72
2019-08-14 04:00:00 8.5 2 Este 5 Este 0 902 0.1 70
2019-08-14 03:00:00 9.6 3 Este 6 Sudeste 0 902.2 0.4 66
2019-08-14 02:00:00 10.8 4 Este 8 Sudeste 0 902 0.4 62
2019-08-14 01:00:00 12.1 3 Este 8 Sudeste 0 901.9 1.3 56
2019-08-14 00:00:00 14.1 3 Este 6 Este 0 901.8 2.2 50
2019-08-13 23:00:00 16 2 Nordeste 5 Este 0 901.6 2.4 45
2019-08-13 22:00:00 19 4 Este 14 Este 0 900.6 1.5 38
2019-08-13 21:00:00 22.2 2 Nordeste 17 Norte 0 899.6 0.6 20
2019-08-13 20:00:00 24.2 10 Noroeste 22 Norte 0 899.2 0.1 18
2019-08-13 19:00:00 26 10 Oeste 21 Norte 0 899.1 -0.3 19
2019-08-13 18:00:00 26.4 10 Oeste 21 Sudoeste 0 899 -0.8 28
2019-08-13 17:00:00 26.9 7 Noroeste 20 Nordeste 0 899.1 -1.2 27
2019-08-13 16:00:00 25.3 8 Noroeste 24 Norte 0 899.4 -1.5 29
2019-08-13 15:00:00 24.3 6 Oeste 22 Norte 0 899.8 -1.4 37
2019-08-13 14:00:00 24 8 Oeste 18 Oeste 0 900.3 -1 39
2019-08-13 13:00:00 22.8 8 Norte 21 Norte 0 900.9 -0.6 39
2019-08-13 12:00:00 21.4 7 Norte 17 Norte 0 901.2 -0.3 41
2019-08-13 11:00:00 18.3 9 Norte 18 Norte 0 901.3 -0.2 50
2019-08-13 10:00:00 15.8 5 Este 13 Este 0 901.5 0.2 50
2019-08-13 09:00:00 13.1 5 Este 14 Este 0 901.5 0.1 59
2019-08-13 08:00:00 11.3 2 Nordeste 15 Este 0 901.5 0.1 67
2019-08-13 07:00:00 11.9 7 Este 14 Este 0 901.3 -0.5 63
2019-08-13 06:00:00 11.9 9 Este 14 Este 0 901.4 -0.5 67
2019-08-13 05:00:00 11.4 3 Este 10 Este 0 901.4 -0.9 71
2019-08-13 04:00:00 11.3 0 Calma 13 Este 0 901.8 -0.4 70
2019-08-13 03:00:00 12.1 8 Este 17 Este 0 901.9 -0.1 68
2019-08-13 02:00:00 11.3 3 Este 6 Este 0 902.3 0.5 69
2019-08-13 01:00:00 11.8 2 Nordeste 13 Este 0 902.2 1.1 65
2019-08-13 00:00:00 13.2 3 Este 13 Este 0 902 1.9 60
2019-08-12 23:00:00 14.6 3 Este 14 Sudeste 0 901.8 2.6 54
2019-08-12 22:00:00 16.1 4 Nordeste 19 Norte 0 901.1 2.3 47
2019-08-12 21:00:00 18.5 5 Nordeste 28 Norte 0 900.1 1.3 38
2019-08-12 20:00:00 21.4 13 Norte 29 Norte 0 899.2 0 33
2019-08-12 19:00:00 24.7 6 Norte 24 Nordeste 0 898.8 -0.6 25
2019-08-12 18:00:00 24.6 8 Norte 27 Este 0 898.8 -0.8 20
2019-08-12 17:00:00 24.7 10 Norte 24 Norte 0 899.2 -0.7 22
2019-08-12 16:00:00 24 8 Nordeste 24 Noroeste 0 899.4 -0.7 26
2019-08-12 15:00:00 23.2 6 Oeste 42 Norte 0 899.6 -0.8 33
2019-08-12 14:00:00 22.7 6 Nordeste 23 Noroeste 0 899.9 -0.5 31
2019-08-12 13:00:00 22 8 Norte 19 Norte 0 900.1 0.1 37
2019-08-12 12:00:00 20.1 7 Norte 20 Norte 0 900.4 0.7 43
2019-08-12 11:00:00 18.7 8 Norte 21 Norte 0 900.4 1.3 51
2019-08-12 10:00:00 16.3 11 Norte 19 Norte 0 900 1.4 60
2019-08-12 09:00:00 13.5 2 Este 6 Sudeste 0 899.7 1.5 74
2019-08-12 08:00:00 10.1 3 Sudeste 5 Sudeste 0 899.1 1 84
2019-08-12 07:00:00 10.9 0 Calma 8 Norte 0 898.6 0.5 82
2019-08-12 06:00:00 11.7 2 Sur 5 Sur 0 898.2 -0.2 78
2019-08-12 05:00:00 12.3 0 Calma 4 Este 0 898.1 -0.6 76
2019-08-12 04:00:00 13.4 3 Sudeste 8 Sudeste 0 898.1 -0.5 72
2019-08-12 03:00:00 14.7 3 Noroeste 5 Noroeste 0 898.4 0 68
2019-08-12 02:00:00 15.6 2 Nordeste 8 Este 0 898.7 0.6 65
2019-08-12 01:00:00 16.4 3 Norte 8 Norte 0 898.6 1.2 63
2019-08-12 00:00:00 17.3 3 Este 7 Este 0 898.4 1.7 58
2019-08-11 23:00:00 18.7 0 Calma 17 Nordeste 0 898.1 1.8 52
2019-08-11 22:00:00 20.9 4 Norte 15 Norte 0 897.4 1.1 39
2019-08-11 21:00:00 23.7 8 Oeste 23 Oeste 0 896.7 0.6 18
2019-08-11 20:00:00 25 12 Sudoeste 29 Oeste 0 896.3 0.3 18
2019-08-11 19:00:00 26.6 16 Sudoeste 36 Oeste 0 896.3 0.2 15
2019-08-11 18:00:00 27.3 14 Sudoeste 35 Oeste 0 896.1 -0.5 19
2019-08-11 17:00:00 27.8 15 Sudoeste 36 Sudoeste 0 896 -0.7 24
2019-08-11 16:00:00 28.1 17 Sudoeste 42 Oeste 0 896.1 -1.1 24
2019-08-11 15:00:00 27.3 17 Sudoeste 36 Sur 0 896.6 -0.8 23
2019-08-11 14:00:00 27.1 13 Sudoeste 34 Oeste 0 896.7 -0.9 29
2019-08-11 13:00:00 25.9 14 Sudoeste 35 Oeste 0 897.2 -0.3 31
2019-08-11 12:00:00 24.8 5 Oeste 13 Sudoeste 0 897.4 -0.5 46
2019-08-11 11:00:00 22 3 Oeste 8 Este 0 897.6 -0.4 48
2019-08-11 10:00:00 19.7 0 Calma 10 Norte 0 897.5 0.5 56
2019-08-11 09:00:00 18.6 7 Norte 16 Noroeste 0 897.9 1 56
2019-08-11 08:00:00 14 7 Oeste 12 Oeste 0 898 1.4 79
2019-08-11 07:00:00 13.4 0 Calma 4 Este 0 897 0.3 74
2019-08-11 06:00:00 13.9 0 Calma 4 Sur 0 896.9 -0.3 72
2019-08-11 05:00:00 14.5 0 Calma 4 Sudeste 0 896.6 -1 70
2019-08-11 04:00:00 15.1 2 Este 8 Sudeste 0 896.7 -1.4 68
2019-08-11 03:00:00 15.9 2 Este 5 Sudeste 0 897.2 -1.2 63
2019-08-11 02:00:00 17.2 0 Calma 10 Este 0 897.6 -1 59
2019-08-11 01:00:00 18.6 3 Este 5 Este 0 898.1 -0.2 55
2019-08-11 00:00:00 20.5 3 Este 8 Este 0 898.4 0.3 51
2019-08-10 23:00:00 22 2 Sudeste 12 Nordeste 0 898.6 0.7 46
2019-08-10 22:00:00 23.9 2 Sudeste 9 Oeste 0 898.3 0.3 35
2019-08-10 21:00:00 26.5 6 Oeste 19 Oeste 0 898.1 -0.1 33
2019-08-10 20:00:00 28.1 8 Sudoeste 27 Sur 0 897.9 -0.5 29
2019-08-10 19:00:00 29.7 12 Oeste 27 Oeste 0 898 -0.7 27
2019-08-10 18:00:00 30.3 11 Sudoeste 32 Oeste 0 898.2 -1 27
2019-08-10 17:00:00 30.4 13 Sudoeste 31 Sur 0 898.4 -1.2 29
2019-08-10 16:00:00 29.9 8 Sudoeste 31 Sudoeste 0 898.7 -1.3 32
2019-08-10 15:00:00 29.3 12 Sudoeste 35 Sur 0 899.2 -1.2 32
2019-08-10 14:00:00 28.4 12 Sudoeste 29 Oeste 0 899.6 -0.9 36
2019-08-10 13:00:00 27.6 12 Sudoeste 25 Sur 0 900 -0.8 37
2019-08-10 12:00:00 26.1 10 Oeste 18 Oeste 0 900.4 -0.3 41
2019-08-10 11:00:00 24.1 5 Noroeste 13 Noroeste 0 900.5 -0.3 54
2019-08-10 10:00:00 21.2 3 Sur 9 Sudeste 0 900.8 0.6 66
2019-08-10 09:00:00 18.3 3 Sudeste 8 Este 0 900.7 1 70
2019-08-10 08:00:00 15.3 2 Sur 5 Sur 0 900.8 1.3 84
2019-08-10 07:00:00 14.6 3 Sur 6 Sudeste 0 900.2 0.6 85
2019-08-10 06:00:00 14.3 0 Calma 5 Este 0 899.7 0.3 82
2019-08-10 05:00:00 15 0 Calma 6 Sudeste 0 899.5 -0.1 81
2019-08-10 04:00:00 15.6 0 Calma 4 Sudeste 0 899.6 -0.3 79
2019-08-10 03:00:00 16.4 0 Calma 4 Sudeste 0 899.4 -0.4 77
2019-08-10 02:00:00 17.7 3 Este 6 Este 0 899.6 0.4 74
2019-08-10 01:00:00 18.9 3 Este 9 Norte 0 899.9 1.6 68
2019-08-10 00:00:00 20.7 4 Norte 15 Norte 0 899.8 2.2 65
2019-08-09 23:00:00 24.2 9 Noroeste 22 Oeste 0 899.2 2.2 54
2019-08-09 22:00:00 25.5 13 Oeste 30 Oeste 0 898.3 1.4 46
2019-08-09 21:00:00 26.8 14 Oeste 34 Sudoeste 0 897.6 0.9 44
2019-08-09 20:00:00 28.1 18 Oeste 39 Sur 0 897 0.2 38
2019-08-09 19:00:00 29.3 17 Sudoeste 44 Sudoeste 0 896.9 -0.4 37
2019-08-09 18:00:00 30.2 17 Sudoeste 34 Sudoeste 0 896.7 -1.1 35
2019-08-09 17:00:00 30.5 14 Oeste 40 Sudoeste 0 896.8 -1.1 35
2019-08-09 16:00:00 29.5 16 Sudoeste 37 Oeste 0 897.3 -0.7 37
2019-08-09 15:00:00 29 18 Sudoeste 40 Oeste 0 897.8 -0.1 38
2019-08-09 14:00:00 28.4 16 Sudoeste 42 Sudoeste 0 897.9 0.2 40
2019-08-09 13:00:00 27.5 19 Oeste 38 Sudoeste 0 898 0.5 41
2019-08-09 12:00:00 26.5 19 Oeste 35 Sudoeste 0 897.9 0.4 41
2019-08-09 11:00:00 25.3 16 Sudoeste 33 Oeste 0 897.7 0 44
2019-08-09 10:00:00 23.3 12 Sudoeste 27 Sudoeste 0 897.5 0 52
2019-08-09 09:00:00 18.3 4 Sudoeste 14 Sudoeste 0 897.5 0.4 67
2019-08-09 08:00:00 13.2 0 Calma 5 Este 0 897.7 0.5 75
2019-08-09 07:00:00 13.1 0 Calma 4 Sudeste 0 897.5 0.4 74
2019-08-09 06:00:00 13.9 0 Calma 4 Este 0 897.1 -0.1 72
2019-08-09 05:00:00 14.9 2 Este 6 Este 0 897.2 0 67
2019-08-09 04:00:00 15.9 0 Calma 5 Este 0 897.1 0.3 64
2019-08-09 03:00:00 17.1 3 Este 6 Sudeste 0 897.2 0.6 60
2019-08-09 02:00:00 18.1 3 Este 5 Sudeste 0 897.2 0.9 56
2019-08-09 01:00:00 19.4 4 Sudeste 8 Sudeste 0 896.8 0.8 51
2019-08-09 00:00:00 21.3 4 Este 8 Este 0 896.6 0.9 46
2019-08-08 23:00:00 23.2 0 Calma 8 Sur 0 896.3 0.9 42
2019-08-08 22:00:00 25.3 5 Sur 15 Sur 0 896 0.4 39
2019-08-08 21:00:00 27.4 9 Sudoeste 28 Sudoeste 0 895.7 -0.1 36
2019-08-08 20:00:00 28.4 12 Sudoeste 31 Oeste 0 895.4 -0.4 35
2019-08-08 19:00:00 29.9 12 Sudoeste 29 Sudoeste 0 895.6 -0.5 34
2019-08-08 18:00:00 30.3 14 Sudoeste 39 Sudoeste 0 895.8 -0.6 35
2019-08-08 17:00:00 30.2 14 Sudoeste 37 Sudoeste 0 895.8 -0.7 35
2019-08-08 16:00:00 30 13 Sudoeste 34 Sur 0 896.1 -0.9 36
2019-08-08 15:00:00 29.5 13 Oeste 30 Sudoeste 0 896.4 -0.8 36
2019-08-08 14:00:00 28.7 11 Oeste 25 Oeste 0 896.5 -0.7 40
2019-08-08 13:00:00 27.4 8 Sudoeste 21 Oeste 0 897 -0.3 39
2019-08-08 12:00:00 26.3 9 Oeste 20 Oeste 0 897.2 -0.5 37
2019-08-08 11:00:00 24 8 Sudoeste 15 Sudoeste 0 897.2 -0.2 45
2019-08-08 10:00:00 21.2 5 Sudoeste 10 Sudoeste 0 897.3 0 59
2019-08-08 09:00:00 16.4 0 Calma 4 Sudeste 0 897.7 0.7 69
2019-08-08 08:00:00 12.6 2 Sudeste 6 Sudeste 0 897.4 0.3 78
2019-08-08 07:00:00 12.6 0 Calma 6 Sudeste 0 897.3 0.1 75
2019-08-08 06:00:00 13.6 2 Este 5 Este 0 897 -0.2 73
2019-08-08 05:00:00 14.6 3 Este 4 Sudeste 0 897.1 -0.1 69
2019-08-08 04:00:00 15.3 0 Calma 4 Sudeste 0 897.2 0.1 65
2019-08-08 03:00:00 16.3 4 Sudoeste 6 Sudoeste 0 897.2 0.3 64
2019-08-08 02:00:00 17.5 0 Calma 5 Sur 0 897.2 0.6 58
2019-08-08 01:00:00 19.3 3 Sudoeste 12 Sudoeste 0 897.1 1.1 53
2019-08-08 00:00:00 20.6 5 Sudoeste 11 Sudoeste 0 896.9 1.2 50
2019-08-07 23:00:00 22 4 Sudoeste 11 Sudoeste 0 896.6 1.1 47
2019-08-07 22:00:00 22.9 4 Sudoeste 14 Sudoeste 0 896 0.1 43
2019-08-07 21:00:00 23.9 6 Sudoeste 19 Oeste 0 895.7 -0.5 39
2019-08-07 20:00:00 24.6 9 Oeste 24 Sudoeste 0 895.5 -0.7 37
2019-08-07 19:00:00 24.9 8 Sudoeste 22 Oeste 0 895.9 -0.5 38
2019-08-07 18:00:00 25.1 7 Sudoeste 19 Oeste 0 896.2 -0.1 38
2019-08-07 17:00:00 25 9 Sudoeste 26 Oeste 0 896.2 0.1 39
2019-08-07 16:00:00 25.2 10 Oeste 23 Oeste 0 896.4 0.5 38
2019-08-07 15:00:00 25.2 10 Sudoeste 21 Oeste 0 896.3 0.6 37
2019-08-07 14:00:00 25.5 9 Sudoeste 20 Sudoeste 0 896.1 0.7 38
2019-08-07 13:00:00 25.4 9 Oeste 20 Oeste 0 895.9 0.5 37
2019-08-07 12:00:00 25.1 10 Noroeste 24 Oeste 0 895.7 0.8 36
2019-08-07 11:00:00 24.4 10 Oeste 22 Oeste 0 895.4 1 41
2019-08-07 10:00:00 21.6 4 Oeste 7 Oeste 0 895.4 1.5 43
2019-08-07 09:00:00 17 2 Este 4 Este 0 894.9 1.2 51
2019-08-07 08:00:00 14.1 0 Calma 5 Sur 0 894.4 0.6 51
2019-08-07 07:00:00 14.6 0 Calma 4 Sudeste 0 893.9 0.1 49
2019-08-07 06:00:00 15.4 2 Este 5 Sudeste 0 893.7 -0.3 47
2019-08-07 05:00:00 16.2 0 Calma 7 Este 0 893.8 -0.5 40
2019-08-07 04:00:00 16.1 2 Este 6 Sudeste 0 893.8 -0.8 35
2019-08-07 03:00:00 16.2 0 Calma 4 Este 0 894 -0.6 35
2019-08-07 02:00:00 16.6 2 Este 5 Sudeste 0 894.3 0 32
2019-08-07 01:00:00 17.8 3 Este 7 Sudeste 0 894.6 0.7 29
2019-08-07 00:00:00 19.7 2 Este 6 Este 0 894.6 1 26
2019-08-06 23:00:00 22.7 2 Este 10 Oeste 0 894.3 0.6 21
2019-08-06 22:00:00 25.3 5 Oeste 10 Sudoeste 0 893.9 0.4 18
2019-08-06 21:00:00 28.2 5 Sudoeste 20 Oeste 0 893.6 -0.2 18
2019-08-06 20:00:00 30 9 Sudoeste 30 Sur 0 893.7 -0.5 16
2019-08-06 19:00:00 31.4 12 Sudoeste 26 Oeste 0 893.5 -1.5 16
2019-08-06 18:00:00 32.5 10 Sudoeste 31 Oeste 0 893.8 -1.9 17
2019-08-06 17:00:00 32.5 10 Sudoeste 28 Oeste 0 894.2 -1.8 18
2019-08-06 16:00:00 31.2 12 Oeste 28 Oeste 0 895 -1.1 19
2019-08-06 15:00:00 30.8 13 Oeste 30 Oeste 0 895.7 -0.7 18
2019-08-06 14:00:00 30.3 16 Oeste 31 Sudoeste 0 896 -0.7 24
2019-08-06 13:00:00 30 15 Sudoeste 34 Sudoeste 0 896.1 -0.5 24
2019-08-06 12:00:00 28.7 12 Oeste 30 Oeste 0 896.4 -0.3 28
2019-08-06 11:00:00 26.8 7 Noroeste 13 Noroeste 0 896.7 0.2 37
2019-08-06 10:00:00 21 0 Calma 4 Oeste 0 896.6 0.2 56
2019-08-06 09:00:00 15.6 0 Calma 3 Sudeste 0 896.7 0.2 54
2019-08-06 08:00:00 11 0 Calma 3 Este 0 896.5 -0.2 61
2019-08-06 07:00:00 11.1 0 Calma 3 Este 0 896.4 -0.5 59
2019-08-06 06:00:00 12 0 Calma 5 Sur 0 896.5 -0.4 52
2019-08-06 05:00:00 12.8 2 Sur 7 Sur 0 896.7 -0.1 51
2019-08-06 04:00:00 13.3 0 Calma 5 Este 0 896.9 0.2 48
2019-08-06 03:00:00 14.3 2 Este 5 Sudeste 0 896.9 0.4 45
2019-08-06 02:00:00 15.4 3 Este 9 Sudeste 0 896.8 0.5 41
2019-08-06 01:00:00 16.7 0 Calma 4 Sur 0 896.7 0.9 39
2019-08-06 00:00:00 18.8 2 Este 7 Sudeste 0 896.5 1.1 33
2019-08-05 23:00:00 22 4 Sudeste 5 Sudeste 0 896.3 1.1 28
2019-08-05 22:00:00 25.3 2 Sur 12 Sudoeste 0 895.8 0.7 24
2019-08-05 21:00:00 28.5 8 Oeste 24 Oeste 0 895.4 0 20
2019-08-05 20:00:00 30.3 10 Oeste 24 Oeste 0 895.2 -0.7 19
2019-08-05 19:00:00 32.4 9 Oeste 26 Oeste 0 895.1 -1.1 18
2019-08-05 18:00:00 32.8 8 Sudoeste 30 Oeste 0 895.4 -1.2 20
2019-08-05 17:00:00 32.7 9 Sudoeste 35 Oeste 0 895.9 -1 21
2019-08-05 16:00:00 32.3 12 Oeste 28 Oeste 0 896.2 -1.2 20
2019-08-05 15:00:00 32.1 13 Sudoeste 30 Oeste 0 896.6 -1 20
2019-08-05 14:00:00 31.5 11 Sudoeste 28 Sudoeste 0 896.9 -0.8 22
2019-08-05 13:00:00 30.4 14 Sudoeste 26 Oeste 0 897.4 -0.8 24
2019-08-05 12:00:00 29.5 10 Oeste 25 Sudoeste 0 897.6 -0.8 27
2019-08-05 11:00:00 25.1 3 Sudoeste 5 Sudoeste 0 897.7 -0.7 42
2019-08-05 10:00:00 20.1 0 Calma 3 Oeste 0 898.2 -0.1 45
2019-08-05 09:00:00 14.9 0 Calma 4 Sudeste 0 898.4 0.3 46
2019-08-05 08:00:00 10.7 2 Este 4 Este 0 898.4 0.4 59
2019-08-05 07:00:00 10.6 0 Calma 5 Este 0 898.3 0.1 58
2019-08-05 06:00:00 11.2 2 Este 4 Sur 0 898.1 -0.1 54
2019-08-05 05:00:00 12 0 Calma 5 Este 0 898 -0.3 52
2019-08-05 04:00:00 12.8 3 Sudeste 6 Este 0 898.2 0 47
2019-08-05 03:00:00 13.8 2 Este 5 Este 0 898.2 0.4 45
2019-08-05 02:00:00 15 2 Este 3 Este 0 898.3 0.7 42
2019-08-05 01:00:00 16.6 0 Calma 6 Este 0 898.2 1.3 38
2019-08-05 00:00:00 18.6 0 Calma 8 Este 0 897.8 1.4 33
2019-08-04 23:00:00 21.3 4 Este 10 Este 0 897.6 1.7 29
2019-08-04 22:00:00 25.3 3 Sudoeste 11 Sudoeste 0 896.9 1.1 23
2019-08-04 21:00:00 28.4 6 Oeste 21 Oeste 0 896.4 0.5 20
2019-08-04 20:00:00 30.2 10 Oeste 26 Oeste 0 895.9 -0.2 18
2019-08-04 19:00:00 31.7 11 Sudoeste 27 Oeste 0 895.8 -0.8 19
2019-08-04 18:00:00 32.3 12 Sudoeste 35 Norte 0 895.9 -0.9 20
2019-08-04 17:00:00 32.4 11 Sudoeste 31 Sur 0 896.1 -0.8 21
2019-08-04 16:00:00 32 11 Sudoeste 34 Oeste 0 896.6 -0.8 21
2019-08-04 15:00:00 31.7 13 Sudoeste 27 Oeste 0 896.8 -0.6 23
2019-08-04 14:00:00 31 9 Sudoeste 29 Oeste 0 896.9 -0.7 27
2019-08-04 13:00:00 30.5 9 Sudoeste 28 Sudoeste 0 897.4 -0.4 26
2019-08-04 12:00:00 29.4 12 Oeste 26 Sudoeste 0 897.4 -0.5 29
2019-08-04 11:00:00 25.8 3 Oeste 8 Oeste 0 897.6 -0.1 46
2019-08-04 10:00:00 20.5 0 Calma 4 Sur 0 897.8 0.4 57
2019-08-04 09:00:00 15.5 2 Sur 4 Sur 0 897.9 0.7 53
2019-08-04 08:00:00 11.2 0 Calma 4 Sudeste 0 897.7 0.6 62
2019-08-04 07:00:00 11 0 Calma 4 Este 0 897.4 0.3 61
2019-08-04 06:00:00 11.7 0 Calma 5 Este 0 897.2 0 53
2019-08-04 05:00:00 12.6 2 Sudeste 5 Sur 0 897.1 0 49
2019-08-04 04:00:00 13.5 0 Calma 5 Sudeste 0 897.1 0.3 44
2019-08-04 03:00:00 14.1 0 Calma 6 Sudeste 0 897.2 0.5 44
2019-08-04 02:00:00 15.1 2 Este 5 Sudeste 0 897.1 0.7 40
2019-08-04 01:00:00 16.4 0 Calma 6 Este 0 896.8 1 38
2019-08-04 00:00:00 18.4 2 Este 7 Este 0 896.7 1.4 33
2019-08-03 23:00:00 21.4 4 Este 8 Sudeste 0 896.4 1.3 27
2019-08-03 22:00:00 25.2 3 Sudoeste 11 Oeste 0 895.8 0.5 22
2019-08-03 21:00:00 28.4 8 Oeste 29 Sudoeste 0 895.3 -0.3 19
2019-08-03 20:00:00 30.3 10 Oeste 29 Oeste 0 895.1 -0.9 19
2019-08-03 19:00:00 31.8 12 Sudoeste 25 Sur 0 895.3 -1.1 20
2019-08-03 18:00:00 32.1 12 Sudoeste 28 Oeste 0 895.6 -1 18
2019-08-03 17:00:00 32.3 16 Oeste 29 Oeste 0 896 -0.8 18
2019-08-03 16:00:00 32.2 13 Sudoeste 30 Sur 0 896.4 -0.7 21
2019-08-03 15:00:00 31.9 11 Sudoeste 27 Sudoeste 0 896.6 -0.8 24
2019-08-03 14:00:00 30.3 12 Oeste 28 Sudoeste 0 896.8 -0.8 27
2019-08-03 13:00:00 30.1 9 Oeste 18 Noroeste 0 897.1 -0.8 33
2019-08-03 12:00:00 28.4 9 Noroeste 18 Noroeste 0 897.4 -0.7 41
2019-08-03 11:00:00 24.9 3 Oeste 8 Oeste 0 897.6 -0.5 46
2019-08-03 10:00:00 20.4 3 Sudoeste 6 Oeste 0 897.9 -0.1 61
2019-08-03 09:00:00 16.4 0 Calma 4 Sur 0 898.1 0.3 68
2019-08-03 08:00:00 12.9 2 Este 4 Sur 0 898.1 0.1 77
2019-08-03 07:00:00 12.8 2 Este 6 Sur 0 898 -0.1 75
2019-08-03 06:00:00 13.6 0 Calma 8 Sudeste 0 897.8 -0.5 72
2019-08-03 05:00:00 14.7 3 Este 5 Este 0 898 -0.4 66
2019-08-03 04:00:00 15.9 0 Calma 5 Este 0 898.1 -0.5 62
2019-08-03 03:00:00 17.3 2 Este 6 Sudeste 0 898.3 -0.2 56
2019-08-03 02:00:00 19.1 3 Sudeste 11 Este 0 898.4 0 50
2019-08-03 01:00:00 20.9 6 Este 13 Este 0 898.6 0.9 44
2019-08-03 00:00:00 20.6 3 Este 7 Este 0 898.5 1.4 44
2019-08-02 23:00:00 22.5 0 Calma 13 Este 0 898.4 1.9 42
2019-08-02 22:00:00 24.6 3 Este 18 Este 0 897.7 1.3 38
2019-08-02 21:00:00 27.2 11 Este 25 Este 0 897.1 0.6 34
2019-08-02 20:00:00 29.3 5 Nordeste 30 Nordeste 0 896.5 0.1 32
2019-08-02 19:00:00 31.1 8 Norte 32 Este 0 896.4 -0.5 30
2019-08-02 18:00:00 32 5 Nordeste 30 Norte 0 896.5 -0.8 27
2019-08-02 17:00:00 32.5 6 Nordeste 28 Oeste 0 896.4 -1.1 29
2019-08-02 16:00:00 31.7 5 Sudoeste 22 Sur 0 896.9 -1.1 23
2019-08-02 15:00:00 31.1 5 Noroeste 23 Oeste 0 897.3 -0.9 24
2019-08-02 14:00:00 29.5 5 Oeste 17 Noroeste 0 897.5 -1 30
2019-08-02 13:00:00 28.2 5 Oeste 16 Noroeste 0 898 -0.6 28
2019-08-02 12:00:00 25.7 4 Oeste 9 Oeste 0 898.2 -0.2 40
2019-08-02 11:00:00 23.6 4 Sudeste 9 Sudeste 0 898.5 0.4 56
2019-08-02 10:00:00 20.1 3 Sur 6 Sur 0 898.6 0.8 71
2019-08-02 09:00:00 16.7 2 Nordeste 5 Sudeste 0 898.4 0.7 81
2019-08-02 08:00:00 13.1 3 Este 7 Este 0 898.1 0.4 87
2019-08-02 07:00:00 13 3 Este 8 Este 0 897.8 0.2 86
2019-08-02 06:00:00 14.1 0 Calma 5 Este 0 897.7 0.2 86
2019-08-02 05:00:00 15.1 0 Calma 5 Este 0 897.7 0.1 84
2019-08-02 04:00:00 15.9 2 Este 8 Este 0 897.6 0.1 79
2019-08-02 03:00:00 17.3 3 Este 9 Este 0 897.5 0.4 75
2019-08-02 02:00:00 18.7 3 Este 10 Este 0 897.6 1.1 71
2019-08-02 01:00:00 20.2 2 Este 9 Este 0 897.5 1.9 56
2019-08-02 00:00:00 22.1 4 Este 23 Norte 0 897.1 2 52
2019-08-01 23:00:00 22.5 6 Norte 15 Norte 0 896.5 1.9 48
2019-08-01 22:00:00 24.7 3 Oeste 13 Oeste 0 895.6 1.2 29
2019-08-01 21:00:00 27.1 6 Sudoeste 18 Sudoeste 0 895.1 0.7 29
2019-08-01 20:00:00 28.6 8 Sudoeste 24 Noroeste 0 894.6 0.1 27
2019-08-01 19:00:00 30.3 11 Oeste 31 Oeste 0 894.4 -0.6 27
2019-08-01 18:00:00 30.6 13 Oeste 28 Oeste 0 894.4 -0.7 26
2019-08-01 17:00:00 30.2 9 Sudoeste 30 Sudoeste 0 894.5 -0.9 29
2019-08-01 16:00:00 30 15 Oeste 31 Sudoeste 0 895 -0.5 30
2019-08-01 15:00:00 29.7 14 Oeste 27 Oeste 0 895.1 -0.6 32
2019-08-01 14:00:00 28.5 9 Oeste 25 Oeste 0 895.4 -0.4 36
2019-08-01 13:00:00 27.8 6 Sur 14 Sur 0 895.5 -0.3 39
2019-08-01 12:00:00 25.8 5 Oeste 14 Noroeste 0 895.7 -0.2 41
2019-08-01 11:00:00 23.9 4 Noroeste 11 Oeste 0 895.8 0.1 46
2019-08-01 10:00:00 19.9 5 Noroeste 10 Noroeste 0 895.8 0.4 62
2019-08-01 09:00:00 15.7 0 Calma 5 Sudeste 0 895.9 0.4 87
2019-08-01 08:00:00 14.5 2 Sudeste 4 Sudeste 0 895.7 -0.1 88
2019-08-01 07:00:00 14.7 2 Sur 5 Este 0 895.4 -0.5 87
2019-08-01 06:00:00 15.3 2 Este 7 Sudeste 0 895.5 -0.4 86
2019-08-01 05:00:00 16 2 Sudoeste 6 Norte 0 895.8 -0.3 84
2019-08-01 04:00:00 16.8 2 Sur 6 Oeste 0 895.9 -0.4 83
2019-08-01 03:00:00 17.4 3 Noroeste 8 Oeste 0 895.9 -0.9 79
2019-08-01 02:00:00 18.3 2 Sur 7 Este 0 896.1 -0.7 74
2019-08-01 01:00:00 19.3 0 Calma 5 Sur 0 896.3 0.1 70
2019-08-01 00:00:00 20.8 3 Este 15 Este 0 896.8 1.2 66
2019-07-31 23:00:00 21.9 6 Este 19 Sudeste 0 896.8 1.8 63
2019-07-31 22:00:00 22.9 12 Este 30 Este 0 896.2 1 60
2019-07-31 21:00:00 25.2 15 Este 32 Este 0 895.6 0.3 53
2019-07-31 20:00:00 27.8 10 Noroeste 28 Norte 0 895 -0.5 41
2019-07-31 19:00:00 28.8 10 Norte 28 Norte 0 895.2 -1 33
2019-07-31 18:00:00 29.6 8 Norte 21 Norte 0 895.3 -1.5 32
2019-07-31 17:00:00 30.4 7 Noroeste 21 Oeste 0 895.5 -1.8 33
2019-07-31 16:00:00 30.5 6 Nordeste 22 Oeste 0 896.2 -1.6 33
2019-07-31 15:00:00 29.1 9 Este 22 Norte 0 896.8 -1.7 39
2019-07-31 14:00:00 28 11 Norte 24 Norte 0 897.3 -1.3 41
2019-07-31 13:00:00 25.6 8 Sudeste 15 Sur 0 897.8 -0.9 41
2019-07-31 12:00:00 23.3 5 Este 18 Nordeste 0 898.5 -0.7 45
2019-07-31 11:00:00 20.9 9 Norte 19 Norte 0 898.6 -1 49
2019-07-31 10:00:00 17.3 10 Norte 18 Norte 0 898.7 -1.1 52
2019-07-31 09:00:00 13.6 3 Sur 4 Sur 0 899.2 -0.2 67
2019-07-31 08:00:00 10.3 3 Este 4 Este 0 899.6 0.2 73
2019-07-31 07:00:00 9.4 0 Calma 4 Sur 0 899.8 0.3 76
2019-07-31 06:00:00 9.8 3 Este 5 Este 0 899.4 -0.2 75
2019-07-31 05:00:00 10.2 0 Calma 4 Sudeste 0 899.4 -0.6 72
2019-07-31 04:00:00 10.9 0 Calma 5 Este 0 899.5 -0.4 71
2019-07-31 03:00:00 11.7 3 Este 6 Este 0 899.6 -0.4 68
2019-07-31 02:00:00 12.9 3 Nordeste 11 Este 0 900 0.5 63
2019-07-31 01:00:00 13.9 6 Este 12 Este 0 899.9 1.2 60
2019-07-31 00:00:00 15.1 4 Este 12 Este 0 900 2.1 56
2019-07-30 23:00:00 16.8 8 Este 17 Este 0 899.5 2.3 52
2019-07-30 22:00:00 18.7 5 Nordeste 17 Nordeste 0 898.7 2.1 46
2019-07-30 21:00:00 21.2 4 Nordeste 25 Nordeste 0 897.9 1.3 40
2019-07-30 20:00:00 24.1 8 Nordeste 23 Nordeste 0 897.2 0.5 35
2019-07-30 19:00:00 27.1 6 Nordeste 25 Norte 0 896.6 -0.6 32
2019-07-30 18:00:00 28.5 8 Norte 26 Norte 0 896.6 -1.1 30
2019-07-30 17:00:00 28.3 5 Este 22 Norte 0 896.7 -1.5 28
2019-07-30 16:00:00 27.5 7 Norte 19 Nordeste 0 897.2 -1.4 28
2019-07-30 15:00:00 26.1 5 Nordeste 18 Sudeste 0 897.7 -1.4 31
2019-07-30 14:00:00 24.7 5 Nordeste 19 Norte 0 898.2 -0.7 39
2019-07-30 13:00:00 22.6 9 Este 22 Nordeste 0 898.6 -0.3 46
2019-07-30 12:00:00 21.7 7 Norte 17 Norte 0 899.1 0.4 48
2019-07-30 11:00:00 20.1 6 Norte 18 Este 0 898.9 0.7 52
2019-07-30 10:00:00 18 7 Norte 13 Nordeste 0 898.9 1.1 59
2019-07-30 09:00:00 13.4 0 Calma 4 Sudeste 0 898.7 1.3 57
2019-07-30 08:00:00 9.5 2 Este 6 Este 0 898.2 1.2 63
2019-07-30 07:00:00 8.8 0 Calma 6 Sudeste 0 897.8 1.2 64
2019-07-30 06:00:00 9.6 2 Este 5 Sudeste 0 897.4 0.9 60
2019-07-30 05:00:00 10.5 0 Calma 7 Sudeste 0 897 0.7 57
2019-07-30 04:00:00 11.7 2 Este 5 Este 0 896.6 0.5 55
2019-07-30 03:00:00 13 4 Sudeste 6 Sudeste 0 896.5 1 52
2019-07-30 02:00:00 14.6 2 Nordeste 7 Este 0 896.3 1.3 50
2019-07-30 01:00:00 16.2 3 Este 6 Sudeste 0 896.1 2.2 43
2019-07-30 00:00:00 19 4 Este 8 Oeste 0 895.5 2.3 32
2019-07-29 23:00:00 22.2 4 Oeste 13 Oeste 0 895 2.1 25
2019-07-29 22:00:00 24.4 8 Oeste 28 Oeste 0 893.9 1 21
2019-07-29 21:00:00 26.5 8 Oeste 23 Oeste 0 893.2 0.1 26
2019-07-29 20:00:00 27.6 10 Oeste 27 Oeste 0 892.9 -0.2 26
2019-07-29 19:00:00 28.9 16 Oeste 38 Sudoeste 0 892.9 -0.5 25
2019-07-29 18:00:00 29.4 12 Oeste 41 Oeste 0 893.1 -0.6 25
2019-07-29 17:00:00 29.2 15 Oeste 28 Oeste 0 893.1 -0.9 27
2019-07-29 16:00:00 29.1 12 Oeste 27 Oeste 0 893.4 -0.8 29
2019-07-29 15:00:00 28.3 14 Sudoeste 30 Sudoeste 0 893.7 -0.5 29
2019-07-29 14:00:00 27.5 13 Sudoeste 30 Sudoeste 0 894 -0.2 33
2019-07-29 13:00:00 26.7 12 Sudoeste 28 Sudoeste 0 894.2 -0.3 36
2019-07-29 12:00:00 26 12 Sudoeste 30 Sur 0 894.2 -0.4 37
2019-07-29 11:00:00 23.4 5 Noroeste 9 Noroeste 0 894.2 -0.3 37
2019-07-29 10:00:00 18.4 2 Sudoeste 4 Sudoeste 0 894.5 0.3 48
2019-07-29 09:00:00 14.1 2 Sudeste 4 Este 0 894.6 0.6 61
2019-07-29 08:00:00 9.9 2 Este 4 Este 0 894.5 0.6 72
2019-07-29 07:00:00 9 0 Calma 6 Este 0 894.2 0.4 74
2019-07-29 06:00:00 9.5 2 Nordeste 6 Sudeste 0 894 -0.1 73
2019-07-29 05:00:00 10.1 0 Calma 5 Este 0 893.9 -0.2 72
2019-07-29 04:00:00 11 3 Este 5 Este 0 893.8 -0.2 69
2019-07-29 03:00:00 11.9 2 Este 5 Sudeste 0 894.1 0.2 64
2019-07-29 02:00:00 13.1 3 Este 7 Este 0 894.1 0.4 58
2019-07-29 01:00:00 14.8 0 Calma 8 Sudeste 0 894 0.9 53
2019-07-29 00:00:00 16.5 3 Este 9 Sudeste 0 893.9 1.3 46
2019-07-28 23:00:00 17.8 4 Sudeste 10 Este 0 893.7 1.6 41
2019-07-28 22:00:00 20.6 0 Calma 8 Este 0 893.1 1.3 33
2019-07-28 21:00:00 23.5 5 Norte 14 Noroeste 0 892.6 0.7 28
2019-07-28 20:00:00 25.8 7 Norte 14 Oeste 0 892.1 0 26
2019-07-28 19:00:00 27.2 7 Noroeste 21 Oeste 0 891.8 -0.9 22
2019-07-28 18:00:00 27.2 7 Oeste 23 Oeste 0 891.9 -1.2 20
2019-07-28 17:00:00 26.7 7 Noroeste 20 Oeste 0 892.1 -1.6 23
2019-07-28 16:00:00 25.7 9 Oeste 21 Oeste 0 892.7 -1.4 32
2019-07-28 15:00:00 23.9 7 Sudoeste 17 Oeste 0 893.1 -1.4 37
2019-07-28 14:00:00 22.2 6 Oeste 15 Este 0 893.7 -1.1 39
2019-07-28 13:00:00 20.5 7 Sur 20 Sudeste 0 894.1 -0.7 50
2019-07-28 12:00:00 19.1 8 Sur 19 Sur 0 894.5 0 52
2019-07-28 11:00:00 17 3 Sur 15 Noroeste 0 894.8 0.4 60
2019-07-28 10:00:00 14.4 3 Sudoeste 9 Noroeste 0 894.8 0.5 67
2019-07-28 09:00:00 11.7 2 Sudeste 6 Este 0 894.5 0.3 74
2019-07-28 08:00:00 8.4 2 Este 8 Sur 0 894.4 0.4 86
2019-07-28 07:00:00 7.9 2 Este 10 Este 0 894.3 0.5 86
2019-07-28 06:00:00 8.5 2 Sudeste 10 Sudeste 0 894.2 0.3 86
2019-07-28 05:00:00 9.6 2 Nordeste 12 Norte 0 894 -0.1 81
2019-07-28 04:00:00 10.2 4 Este 8 Sudeste 0 893.8 -0.2 80
2019-07-28 03:00:00 11.2 2 Norte 8 Noroeste 0 893.9 0.1 78
2019-07-28 02:00:00 12.3 3 Norte 9 Noroeste 0 894.1 0.7 75
2019-07-28 01:00:00 13.4 3 Norte 8 Norte 0 894 1.8 72
2019-07-28 00:00:00 14.5 3 Noroeste 10 Noroeste 0 893.8 2.7 71
2019-07-27 23:00:00 15.8 8 Norte 31 Norte 0 893.4 3.1 67
2019-07-26 12:00:00 23.4 4 Oeste 16 Nordeste 0 895.1 0.1 44
2019-07-26 11:00:00 22.8 7 Norte 20 Norte 0 895.2 0.8 47
2019-07-26 10:00:00 22.4 0 Calma 11 Sudeste 0 894.7 -0.2 45
2019-07-26 09:00:00 20.8 0 Calma 13 Sudoeste 0 895 0.5 51
2019-07-26 08:00:00 20.7 4 Norte 13 Noroeste 0 894.4 -0.4 48
2019-07-26 07:00:00 20.8 6 Noroeste 14 Noroeste 0 894.9 -0.1 46
2019-07-26 06:00:00 20.8 0 Calma 13 Norte 0 894.5 -0.9 46
2019-07-26 05:00:00 21.6 4 Sudeste 13 Este 0 894.8 -0.9 46
2019-07-26 04:00:00 22.6 2 Nordeste 16 Este 0 895 -0.9 46
2019-07-26 03:00:00 24.2 3 Este 13 Norte 0 895.4 -0.4 43
2019-07-26 02:00:00 25 5 Oeste 30 Sudoeste 0 895.7 -0.4 40
2019-07-26 01:00:00 25.6 13 Sur 30 Sur 0 895.9 0.1 39
2019-07-26 00:00:00 26.4 15 Sur 37 Sur 0 895.8 0.7 32